Terminal Aerodrome Forecast
Issued by NWS

Home | Current Version | Previous Version | Text Only | Print | Product List | Glossary On
Versions: 1 2 3 4 5 6 7 8 9 10 11 12 13 14 15 16 17 18 19 20
000
FTUS43 KGRR 170741 AAA
TAFJXN
TAF AMD
KJXN 170741Z 1708/1806 08006KT 4SM BR OVC006
     FM171600 11007KT 4SM BR OVC009
     FM180000 18006KT 4SM BR OVC012=

USA.gov is the U.S. government's official web portal to all federal, state and local government web resources and services.